Devils Tower, Wyoming
Current Conditions -  °F | °C
As of 7:53 PM on Thursday 18 Dec 2014 (Local Time) from KGCC Reporting Station
Clear Clear  
Wind Chill: 19°   Ceiling: Unl
Heat Index: 29°   Visibility: 10mi
Dew Point: 16°   Wind: 13mph
Humidity: 58%   Direction: 220°SW
Pressure: 29.99"   Gusts: NA
Location:  44.59°N, 104.7°W
Report Text: KGCC 190253Z AUTO 22011KT 10SM CLR M02/M09 A2999 RMK AO2 SLP190 T10171089 51003 TSNO
Loading
Personal Weather Stations






























Interactive Weather Map New forecast layout! Learn more

10-Day Weather Forecast

Advertisements
Track Severe Weather on mobile